sensor_id;sensor_type;location;lat;lon;timestamp;P1;durP1;ratioP1;P2;durP2;ratioP2
48751;SDS011;34544;48.836;9.174;2022-12-18T00:01:56;77.43;;;30.33;;
48751;SDS011;34544;48.836;9.174;2022-12-18T00:04:24;79.50;;;31.07;;
48751;SDS011;34544;48.836;9.174;2022-12-18T00:06:51;78.43;;;30.37;;
48751;SDS011;34544;48.836;9.174;2022-12-18T00:09:17;77.80;;;28.67;;
48751;SDS011;34544;48.836;9.174;2022-12-18T00:11:44;67.10;;;28.33;;
48751;SDS011;34544;48.836;9.174;2022-12-18T00:14:13;72.30;;;28.90;;
48751;SDS011;34544;48.836;9.174;2022-12-18T00:16:39;71.93;;;30.77;;
48751;SDS011;34544;48.836;9.174;2022-12-18T00:19:08;73.63;;;29.47;;
48751;SDS011;34544;48.836;9.174;2022-12-18T00:21:35;71.00;;;30.50;;
48751;SDS011;34544;48.836;9.174;2022-12-18T00:24:01;65.77;;;27.00;;
48751;SDS011;34544;48.836;9.174;2022-12-18T00:26:28;71.47;;;29.70;;
48751;SDS011;34544;48.836;9.174;2022-12-18T00:29:00;72.63;;;29.23;;
48751;SDS011;34544;48.836;9.174;2022-12-18T00:31:29;73.77;;;28.30;;
48751;SDS011;34544;48.836;9.174;2022-12-18T00:33:55;61.27;;;26.83;;
48751;SDS011;34544;48.836;9.174;2022-12-18T00:36:22;70.00;;;29.27;;
48751;SDS011;34544;48.836;9.174;2022-12-18T00:38:53;76.32;;;31.50;;
48751;SDS011;34544;48.836;9.174;2022-12-18T00:41:20;74.40;;;30.10;;
48751;SDS011;34544;48.836;9.174;2022-12-18T00:44:13;70.97;;;28.33;;
48751;SDS011;34544;48.836;9.174;2022-12-18T00:46:41;66.97;;;26.97;;
48751;SDS011;34544;48.836;9.174;2022-12-18T00:49:07;74.07;;;31.97;;
48751;SDS011;34544;48.836;9.174;2022-12-18T00:51:33;72.70;;;26.67;;
48751;SDS011;34544;48.836;9.174;2022-12-18T00:53:59;71.60;;;28.50;;
48751;SDS011;34544;48.836;9.174;2022-12-18T00:56:24;63.90;;;27.13;;
48751;SDS011;34544;48.836;9.174;2022-12-18T00:58:51;75.00;;;30.47;;
48751;SDS011;34544;48.836;9.174;2022-12-18T01:01:17;69.77;;;30.23;;
48751;SDS011;34544;48.836;9.174;2022-12-18T01:03:43;69.30;;;27.60;;
48751;SDS011;34544;48.836;9.174;2022-12-18T01:06:10;79.97;;;31.13;;
48751;SDS011;34544;48.836;9.174;2022-12-18T01:08:37;67.37;;;28.07;;
48751;SDS011;34544;48.836;9.174;2022-12-18T01:11:07;73.17;;;29.47;;
48751;SDS011;34544;48.836;9.174;2022-12-18T01:13:37;72.33;;;27.80;;
48751;SDS011;34544;48.836;9.174;2022-12-18T01:16:03;75.10;;;27.43;;
48751;SDS011;34544;48.836;9.174;2022-12-18T01:18:29;76.47;;;29.87;;
48751;SDS011;34544;48.836;9.174;2022-12-18T01:20:57;65.90;;;27.50;;
48751;SDS011;34544;48.836;9.174;2022-12-18T01:23:23;64.27;;;27.03;;
48751;SDS011;34544;48.836;9.174;2022-12-18T01:25:51;78.47;;;29.83;;
48751;SDS011;34544;48.836;9.174;2022-12-18T01:28:17;69.47;;;28.87;;
48751;SDS011;34544;48.836;9.174;2022-12-18T01:30:43;79.47;;;28.60;;
48751;SDS011;34544;48.836;9.174;2022-12-18T01:33:08;82.80;;;29.70;;
48751;SDS011;34544;48.836;9.174;2022-12-18T01:35:39;59.50;;;25.43;;
48751;SDS011;34544;48.836;9.174;2022-12-18T01:38:08;78.13;;;26.00;;
48751;SDS011;34544;48.836;9.174;2022-12-18T01:40:34;69.53;;;29.53;;
48751;SDS011;34544;48.836;9.174;2022-12-18T01:43:00;67.63;;;27.33;;
48751;SDS011;34544;48.836;9.174;2022-12-18T01:45:30;74.50;;;30.80;;
48751;SDS011;34544;48.836;9.174;2022-12-18T01:48:00;76.10;;;30.03;;
48751;SDS011;34544;48.836;9.174;2022-12-18T01:55:43;73.20;;;28.77;;
48751;SDS011;34544;48.836;9.174;2022-12-18T01:58:12;71.90;;;27.93;;
48751;SDS011;34544;48.836;9.174;2022-12-18T02:00:38;77.47;;;30.13;;
48751;SDS011;34544;48.836;9.174;2022-12-18T02:03:03;69.40;;;26.03;;
48751;SDS011;34544;48.836;9.174;2022-12-18T02:11:22;67.90;;;25.70;;
48751;SDS011;34544;48.836;9.174;2022-12-18T02:21:57;72.05;;;28.05;;
48751;SDS011;34544;48.836;9.174;2022-12-18T02:27:23;71.50;;;28.40;;
48751;SDS011;34544;48.836;9.174;2022-12-18T02:29:52;64.77;;;26.83;;
48751;SDS011;34544;48.836;9.174;2022-12-18T02:32:22;60.17;;;28.20;;
48751;SDS011;34544;48.836;9.174;2022-12-18T02:37:20;69.67;;;25.27;;
48751;SDS011;34544;48.836;9.174;2022-12-18T02:39:49;64.27;;;25.87;;
48751;SDS011;34544;48.836;9.174;2022-12-18T02:42:16;67.93;;;27.90;;
48751;SDS011;34544;48.836;9.174;2022-12-18T02:44:44;71.13;;;26.30;;
48751;SDS011;34544;48.836;9.174;2022-12-18T02:47:20;65.60;;;24.90;;
48751;SDS011;34544;48.836;9.174;2022-12-18T02:52:39;76.40;;;26.77;;
48751;SDS011;34544;48.836;9.174;2022-12-18T02:55:24;58.37;;;23.27;;
48751;SDS011;34544;48.836;9.174;2022-12-18T03:01:03;68.47;;;26.13;;
48751;SDS011;34544;48.836;9.174;2022-12-18T03:03:46;63.58;;;25.75;;
48751;SDS011;34544;48.836;9.174;2022-12-18T03:06:24;68.33;;;25.77;;
48751;SDS011;34544;48.836;9.174;2022-12-18T03:08:58;65.60;;;26.27;;
48751;SDS011;34544;48.836;9.174;2022-12-18T03:11:29;71.00;;;26.57;;
48751;SDS011;34544;48.836;9.174;2022-12-18T03:14:17;57.00;;;25.03;;
48751;SDS011;34544;48.836;9.174;2022-12-18T03:16:48;67.00;;;25.73;;
48751;SDS011;34544;48.836;9.174;2022-12-18T03:19:18;65.15;;;23.75;;
48751;SDS011;34544;48.836;9.174;2022-12-18T03:21:54;66.53;;;24.97;;
48751;SDS011;34544;48.836;9.174;2022-12-18T03:24:24;60.40;;;27.03;;
48751;SDS011;34544;48.836;9.174;2022-12-18T03:26:54;62.37;;;24.93;;
48751;SDS011;34544;48.836;9.174;2022-12-18T03:29:27;63.60;;;25.63;;
48751;SDS011;34544;48.836;9.174;2022-12-18T03:32:10;66.67;;;25.40;;
48751;SDS011;34544;48.836;9.174;2022-12-18T03:34:41;63.17;;;24.03;;
48751;SDS011;34544;48.836;9.174;2022-12-18T03:37:12;44.85;;;18.80;;
48751;SDS011;34544;48.836;9.174;2022-12-18T03:39:39;64.53;;;24.43;;
48751;SDS011;34544;48.836;9.174;2022-12-18T03:45:09;59.70;;;25.83;;
48751;SDS011;34544;48.836;9.174;2022-12-18T03:47:47;53.80;;;23.83;;
48751;SDS011;34544;48.836;9.174;2022-12-18T03:50:43;50.70;;;21.40;;
48751;SDS011;34544;48.836;9.174;2022-12-18T03:53:41;63.03;;;25.00;;
48751;SDS011;34544;48.836;9.174;2022-12-18T03:56:15;66.03;;;24.57;;
48751;SDS011;34544;48.836;9.174;2022-12-18T03:58:42;57.07;;;22.13;;
48751;SDS011;34544;48.836;9.174;2022-12-18T04:01:20;58.77;;;24.70;;
48751;SDS011;34544;48.836;9.174;2022-12-18T04:03:51;66.93;;;24.67;;
48751;SDS011;34544;48.836;9.174;2022-12-18T04:06:19;67.33;;;26.47;;
48751;SDS011;34544;48.836;9.174;2022-12-18T04:08:45;68.27;;;25.63;;
48751;SDS011;34544;48.836;9.174;2022-12-18T04:11:15;67.53;;;26.40;;
48751;SDS011;34544;48.836;9.174;2022-12-18T04:13:43;68.00;;;28.73;;
48751;SDS011;34544;48.836;9.174;2022-12-18T04:16:17;60.60;;;23.87;;
48751;SDS011;34544;48.836;9.174;2022-12-18T04:18:44;65.97;;;26.37;;
48751;SDS011;34544;48.836;9.174;2022-12-18T04:21:10;52.03;;;22.43;;
48751;SDS011;34544;48.836;9.174;2022-12-18T04:23:36;64.87;;;27.03;;
48751;SDS011;34544;48.836;9.174;2022-12-18T04:26:02;67.00;;;24.97;;
48751;SDS011;34544;48.836;9.174;2022-12-18T04:28:49;79.17;;;28.20;;
48751;SDS011;34544;48.836;9.174;2022-12-18T04:31:15;74.67;;;26.33;;
48751;SDS011;34544;48.836;9.174;2022-12-18T04:33:41;55.40;;;21.50;;
48751;SDS011;34544;48.836;9.174;2022-12-18T04:36:07;73.07;;;26.40;;
48751;SDS011;34544;48.836;9.174;2022-12-18T04:38:33;60.13;;;26.90;;
48751;SDS011;34544;48.836;9.174;2022-12-18T04:41:05;61.70;;;25.27;;
48751;SDS011;34544;48.836;9.174;2022-12-18T04:43:31;61.60;;;25.37;;
48751;SDS011;34544;48.836;9.174;2022-12-18T04:46:01;64.20;;;28.57;;
48751;SDS011;34544;48.836;9.174;2022-12-18T04:48:30;66.13;;;27.07;;
48751;SDS011;34544;48.836;9.174;2022-12-18T04:50:56;68.03;;;26.30;;
48751;SDS011;34544;48.836;9.174;2022-12-18T04:53:22;57.67;;;24.63;;
48751;SDS011;34544;48.836;9.174;2022-12-18T04:55:48;65.70;;;26.00;;
48751;SDS011;34544;48.836;9.174;2022-12-18T04:58:14;55.10;;;24.83;;
48751;SDS011;34544;48.836;9.174;2022-12-18T05:00:39;60.83;;;25.50;;
48751;SDS011;34544;48.836;9.174;2022-12-18T05:03:05;68.20;;;25.87;;
48751;SDS011;34544;48.836;9.174;2022-12-18T05:05:31;69.20;;;26.40;;
48751;SDS011;34544;48.836;9.174;2022-12-18T05:07:56;53.83;;;23.93;;
48751;SDS011;34544;48.836;9.174;2022-12-18T05:10:22;64.87;;;25.17;;
48751;SDS011;34544;48.836;9.174;2022-12-18T05:12:48;60.63;;;25.27;;
48751;SDS011;34544;48.836;9.174;2022-12-18T05:15:23;63.20;;;25.97;;
48751;SDS011;34544;48.836;9.174;2022-12-18T05:17:53;68.97;;;25.90;;
48751;SDS011;34544;48.836;9.174;2022-12-18T05:20:18;63.60;;;24.93;;
48751;SDS011;34544;48.836;9.174;2022-12-18T05:22:44;71.27;;;27.50;;
48751;SDS011;34544;48.836;9.174;2022-12-18T05:25:10;74.67;;;27.27;;
48751;SDS011;34544;48.836;9.174;2022-12-18T05:27:35;73.73;;;26.97;;
48751;SDS011;34544;48.836;9.174;2022-12-18T05:30:01;65.47;;;27.73;;
48751;SDS011;34544;48.836;9.174;2022-12-18T05:32:28;73.73;;;31.10;;
48751;SDS011;34544;48.836;9.174;2022-12-18T05:34:53;66.27;;;25.63;;
48751;SDS011;34544;48.836;9.174;2022-12-18T05:37:19;64.57;;;24.60;;
48751;SDS011;34544;48.836;9.174;2022-12-18T05:39:45;63.27;;;26.60;;
48751;SDS011;34544;48.836;9.174;2022-12-18T05:42:11;74.37;;;27.70;;
48751;SDS011;34544;48.836;9.174;2022-12-18T05:44:37;69.03;;;25.20;;
48751;SDS011;34544;48.836;9.174;2022-12-18T05:47:02;55.20;;;24.90;;
48751;SDS011;34544;48.836;9.174;2022-12-18T05:49:29;73.03;;;28.47;;
48751;SDS011;34544;48.836;9.174;2022-12-18T05:51:54;63.80;;;25.20;;
48751;SDS011;34544;48.836;9.174;2022-12-18T05:54:20;51.13;;;23.10;;
48751;SDS011;34544;48.836;9.174;2022-12-18T05:56:46;51.70;;;22.47;;
48751;SDS011;34544;48.836;9.174;2022-12-18T05:59:12;60.07;;;22.23;;
48751;SDS011;34544;48.836;9.174;2022-12-18T06:01:38;62.90;;;24.53;;
48751;SDS011;34544;48.836;9.174;2022-12-18T06:04:04;59.40;;;23.20;;
48751;SDS011;34544;48.836;9.174;2022-12-18T06:06:29;64.00;;;22.97;;
48751;SDS011;34544;48.836;9.174;2022-12-18T06:08:55;60.10;;;23.00;;
48751;SDS011;34544;48.836;9.174;2022-12-18T06:11:22;55.10;;;22.83;;
48751;SDS011;34544;48.836;9.174;2022-12-18T06:13:50;59.57;;;21.70;;
48751;SDS011;34544;48.836;9.174;2022-12-18T06:16:17;51.83;;;22.90;;
48751;SDS011;34544;48.836;9.174;2022-12-18T06:18:42;61.47;;;25.00;;
48751;SDS011;34544;48.836;9.174;2022-12-18T06:21:08;65.77;;;22.37;;
48751;SDS011;34544;48.836;9.174;2022-12-18T06:23:34;61.37;;;23.07;;
48751;SDS011;34544;48.836;9.174;2022-12-18T06:26:07;55.87;;;23.37;;
48751;SDS011;34544;48.836;9.174;2022-12-18T06:28:34;54.57;;;22.77;;
48751;SDS011;34544;48.836;9.174;2022-12-18T06:31:00;55.57;;;22.33;;
48751;SDS011;34544;48.836;9.174;2022-12-18T06:33:27;56.60;;;23.00;;
48751;SDS011;34544;48.836;9.174;2022-12-18T06:35:53;52.17;;;21.37;;
48751;SDS011;34544;48.836;9.174;2022-12-18T06:38:19;49.73;;;21.47;;
48751;SDS011;34544;48.836;9.174;2022-12-18T06:40:45;55.20;;;21.73;;
48751;SDS011;34544;48.836;9.174;2022-12-18T06:43:10;48.13;;;20.50;;
48751;SDS011;34544;48.836;9.174;2022-12-18T06:45:36;57.53;;;23.50;;
48751;SDS011;34544;48.836;9.174;2022-12-18T06:48:01;52.67;;;23.63;;
48751;SDS011;34544;48.836;9.174;2022-12-18T06:50:27;50.93;;;22.50;;
48751;SDS011;34544;48.836;9.174;2022-12-18T06:52:53;48.17;;;21.20;;
48751;SDS011;34544;48.836;9.174;2022-12-18T06:55:18;54.53;;;23.40;;
48751;SDS011;34544;48.836;9.174;2022-12-18T06:57:44;58.90;;;22.83;;
48751;SDS011;34544;48.836;9.174;2022-12-18T07:00:10;53.17;;;20.93;;
48751;SDS011;34544;48.836;9.174;2022-12-18T07:02:36;55.93;;;21.37;;
48751;SDS011;34544;48.836;9.174;2022-12-18T07:05:01;56.10;;;20.10;;
48751;SDS011;34544;48.836;9.174;2022-12-18T07:07:28;44.43;;;20.53;;
48751;SDS011;34544;48.836;9.174;2022-12-18T07:09:53;49.30;;;20.70;;
48751;SDS011;34544;48.836;9.174;2022-12-18T07:12:19;45.00;;;19.60;;
48751;SDS011;34544;48.836;9.174;2022-12-18T07:14:45;54.93;;;22.23;;
48751;SDS011;34544;48.836;9.174;2022-12-18T07:17:10;46.27;;;21.77;;
48751;SDS011;34544;48.836;9.174;2022-12-18T07:19:36;52.67;;;20.80;;
48751;SDS011;34544;48.836;9.174;2022-12-18T07:22:02;52.80;;;20.83;;
48751;SDS011;34544;48.836;9.174;2022-12-18T07:24:27;46.93;;;19.80;;
48751;SDS011;34544;48.836;9.174;2022-12-18T07:26:53;59.50;;;21.33;;
48751;SDS011;34544;48.836;9.174;2022-12-18T07:29:19;54.73;;;21.10;;
48751;SDS011;34544;48.836;9.174;2022-12-18T07:31:44;50.07;;;20.70;;
48751;SDS011;34544;48.836;9.174;2022-12-18T07:34:11;48.00;;;21.23;;
48751;SDS011;34544;48.836;9.174;2022-12-18T07:36:37;43.00;;;20.10;;
48751;SDS011;34544;48.836;9.174;2022-12-18T07:39:03;51.33;;;19.60;;
48751;SDS011;34544;48.836;9.174;2022-12-18T07:41:28;46.63;;;20.93;;
48751;SDS011;34544;48.836;9.174;2022-12-18T07:43:54;44.93;;;17.63;;
48751;SDS011;34544;48.836;9.174;2022-12-18T07:46:20;49.20;;;21.53;;
48751;SDS011;34544;48.836;9.174;2022-12-18T07:48:46;50.17;;;21.17;;
48751;SDS011;34544;48.836;9.174;2022-12-18T07:51:12;44.97;;;20.33;;
48751;SDS011;34544;48.836;9.174;2022-12-18T07:53:38;57.20;;;21.53;;
48751;SDS011;34544;48.836;9.174;2022-12-18T07:56:05;46.27;;;20.50;;
48751;SDS011;34544;48.836;9.174;2022-12-18T07:58:35;42.95;;;19.63;;
48751;SDS011;34544;48.836;9.174;2022-12-18T08:01:02;45.43;;;19.10;;
48751;SDS011;34544;48.836;9.174;2022-12-18T08:03:32;51.70;;;22.55;;
48751;SDS011;34544;48.836;9.174;2022-12-18T08:05:59;48.83;;;21.13;;
48751;SDS011;34544;48.836;9.174;2022-12-18T08:08:29;50.80;;;21.57;;
48751;SDS011;34544;48.836;9.174;2022-12-18T08:10:55;42.27;;;21.50;;
48751;SDS011;34544;48.836;9.174;2022-12-18T08:13:22;53.37;;;21.90;;
48751;SDS011;34544;48.836;9.174;2022-12-18T08:16:05;56.87;;;21.70;;
48751;SDS011;34544;48.836;9.174;2022-12-18T08:18:32;44.20;;;21.90;;
48751;SDS011;34544;48.836;9.174;2022-12-18T08:21:09;49.37;;;22.77;;
48751;SDS011;34544;48.836;9.174;2022-12-18T08:23:37;49.33;;;20.83;;
48751;SDS011;34544;48.836;9.174;2022-12-18T08:26:03;45.53;;;20.40;;
48751;SDS011;34544;48.836;9.174;2022-12-18T08:28:29;53.27;;;21.73;;
48751;SDS011;34544;48.836;9.174;2022-12-18T08:30:55;50.97;;;22.87;;
48751;SDS011;34544;48.836;9.174;2022-12-18T08:33:20;46.17;;;22.10;;
48751;SDS011;34544;48.836;9.174;2022-12-18T08:35:46;45.13;;;21.33;;
48751;SDS011;34544;48.836;9.174;2022-12-18T08:38:12;45.77;;;21.07;;
48751;SDS011;34544;48.836;9.174;2022-12-18T08:40:37;48.63;;;23.00;;
48751;SDS011;34544;48.836;9.174;2022-12-18T08:43:03;53.80;;;22.97;;
48751;SDS011;34544;48.836;9.174;2022-12-18T08:45:47;50.43;;;21.80;;
48751;SDS011;34544;48.836;9.174;2022-12-18T08:48:13;51.50;;;25.00;;
48751;SDS011;34544;48.836;9.174;2022-12-18T08:50:39;42.93;;;20.83;;
48751;SDS011;34544;48.836;9.174;2022-12-18T08:53:11;50.53;;;21.73;;
48751;SDS011;34544;48.836;9.174;2022-12-18T08:55:37;44.83;;;21.77;;
48751;SDS011;34544;48.836;9.174;2022-12-18T08:58:02;40.43;;;20.67;;
48751;SDS011;34544;48.836;9.174;2022-12-18T09:00:28;45.53;;;21.30;;
48751;SDS011;34544;48.836;9.174;2022-12-18T09:02:54;43.40;;;21.87;;
48751;SDS011;34544;48.836;9.174;2022-12-18T09:05:19;45.53;;;21.37;;
48751;SDS011;34544;48.836;9.174;2022-12-18T09:07:45;42.27;;;21.10;;
48751;SDS011;34544;48.836;9.174;2022-12-18T09:10:11;44.03;;;23.60;;
48751;SDS011;34544;48.836;9.174;2022-12-18T09:12:36;50.42;;;23.77;;
48751;SDS011;34544;48.836;9.174;2022-12-18T09:15:02;44.53;;;22.35;;
48751;SDS011;34544;48.836;9.174;2022-12-18T09:17:28;43.67;;;21.63;;
48751;SDS011;34544;48.836;9.174;2022-12-18T09:19:53;42.22;;;20.48;;
48751;SDS011;34544;48.836;9.174;2022-12-18T09:22:19;45.47;;;23.25;;
48751;SDS011;34544;48.836;9.174;2022-12-18T09:24:45;47.78;;;22.42;;
48751;SDS011;34544;48.836;9.174;2022-12-18T09:27:11;46.45;;;22.95;;
48751;SDS011;34544;48.836;9.174;2022-12-18T09:29:36;45.45;;;23.30;;
48751;SDS011;34544;48.836;9.174;2022-12-18T09:32:02;48.90;;;23.98;;
48751;SDS011;34544;48.836;9.174;2022-12-18T09:34:28;42.70;;;22.63;;
48751;SDS011;34544;48.836;9.174;2022-12-18T09:36:53;43.60;;;22.95;;
48751;SDS011;34544;48.836;9.174;2022-12-18T09:39:19;45.38;;;23.27;;
48751;SDS011;34544;48.836;9.174;2022-12-18T09:41:52;44.63;;;21.73;;
48751;SDS011;34544;48.836;9.174;2022-12-18T09:44:44;45.50;;;22.30;;
48751;SDS011;34544;48.836;9.174;2022-12-18T09:47:21;48.00;;;23.55;;
48751;SDS011;34544;48.836;9.174;2022-12-18T09:50:02;42.13;;;22.50;;
48751;SDS011;34544;48.836;9.174;2022-12-18T09:52:39;38.03;;;21.42;;
48751;SDS011;34544;48.836;9.174;2022-12-18T09:55:24;42.75;;;20.95;;
48751;SDS011;34544;48.836;9.174;2022-12-18T09:57:52;47.60;;;20.40;;
48751;SDS011;34544;48.836;9.174;2022-12-18T10:00:26;43.28;;;21.63;;
48751;SDS011;34544;48.836;9.174;2022-12-18T10:02:53;35.95;;;20.48;;
48751;SDS011;34544;48.836;9.174;2022-12-18T10:05:29;43.17;;;21.95;;
48751;SDS011;34544;48.836;9.174;2022-12-18T10:08:05;40.80;;;21.30;;
48751;SDS011;34544;48.836;9.174;2022-12-18T10:10:53;39.97;;;20.30;;
48751;SDS011;34544;48.836;9.174;2022-12-18T10:13:31;41.80;;;21.15;;
48751;SDS011;34544;48.836;9.174;2022-12-18T10:21:42;40.92;;;22.52;;
48751;SDS011;34544;48.836;9.174;2022-12-18T10:26:55;52.60;;;23.17;;
48751;SDS011;34544;48.836;9.174;2022-12-18T10:29:33;36.60;;;20.25;;
48751;SDS011;34544;48.836;9.174;2022-12-18T10:31:59;39.33;;;20.60;;
48751;SDS011;34544;48.836;9.174;2022-12-18T10:34:25;46.63;;;23.83;;
48751;SDS011;34544;48.836;9.174;2022-12-18T10:36:50;36.97;;;20.00;;
48751;SDS011;34544;48.836;9.174;2022-12-18T10:39:21;39.92;;;20.60;;
48751;SDS011;34544;48.836;9.174;2022-12-18T10:41:59;36.88;;;19.98;;
48751;SDS011;34544;48.836;9.174;2022-12-18T10:44:44;42.13;;;21.23;;
48751;SDS011;34544;48.836;9.174;2022-12-18T10:47:12;41.53;;;20.05;;
48751;SDS011;34544;48.836;9.174;2022-12-18T10:49:47;44.55;;;22.70;;
48751;SDS011;34544;48.836;9.174;2022-12-18T10:52:19;37.28;;;21.05;;
48751;SDS011;34544;48.836;9.174;2022-12-18T10:54:48;36.22;;;19.85;;
48751;SDS011;34544;48.836;9.174;2022-12-18T10:57:17;34.80;;;19.77;;
48751;SDS011;34544;48.836;9.174;2022-12-18T10:59:58;41.78;;;23.50;;
48751;SDS011;34544;48.836;9.174;2022-12-18T11:02:28;36.03;;;20.88;;
48751;SDS011;34544;48.836;9.174;2022-12-18T11:05:00;37.33;;;19.95;;
48751;SDS011;34544;48.836;9.174;2022-12-18T11:07:26;42.90;;;21.30;;
48751;SDS011;34544;48.836;9.174;2022-12-18T11:10:19;38.95;;;20.20;;
48751;SDS011;34544;48.836;9.174;2022-12-18T11:12:47;42.63;;;21.85;;
48751;SDS011;34544;48.836;9.174;2022-12-18T11:15:16;37.75;;;19.92;;
48751;SDS011;34544;48.836;9.174;2022-12-18T11:17:47;36.38;;;19.38;;
48751;SDS011;34544;48.836;9.174;2022-12-18T11:23:01;38.15;;;21.15;;
48751;SDS011;34544;48.836;9.174;2022-12-18T11:25:30;36.22;;;20.33;;
48751;SDS011;34544;48.836;9.174;2022-12-18T11:27:58;38.80;;;20.27;;
48751;SDS011;34544;48.836;9.174;2022-12-18T11:30:28;34.33;;;19.52;;
48751;SDS011;34544;48.836;9.174;2022-12-18T11:35:49;37.28;;;19.83;;
48751;SDS011;34544;48.836;9.174;2022-12-18T11:38:21;43.65;;;20.35;;
48751;SDS011;34544;48.836;9.174;2022-12-18T11:40:52;42.60;;;20.25;;
48751;SDS011;34544;48.836;9.174;2022-12-18T11:43:45;40.58;;;23.13;;
48751;SDS011;34544;48.836;9.174;2022-12-18T11:48:58;40.38;;;22.15;;
48751;SDS011;34544;48.836;9.174;2022-12-18T11:51:29;35.95;;;20.35;;
48751;SDS011;34544;48.836;9.174;2022-12-18T11:54:00;44.03;;;23.15;;
48751;SDS011;34544;48.836;9.174;2022-12-18T11:56:35;40.47;;;23.15;;
48751;SDS011;34544;48.836;9.174;2022-12-18T12:19:17;41.45;;;21.67;;
48751;SDS011;34544;48.836;9.174;2022-12-18T12:27:30;48.22;;;21.65;;
48751;SDS011;34544;48.836;9.174;2022-12-18T12:38:13;42.67;;;21.63;;
48751;SDS011;34544;48.836;9.174;2022-12-18T12:40:49;40.10;;;20.15;;
48751;SDS011;34544;48.836;9.174;2022-12-18T12:43:29;45.33;;;23.05;;
48751;SDS011;34544;48.836;9.174;2022-12-18T12:46:02;44.50;;;20.58;;
48751;SDS011;34544;48.836;9.174;2022-12-18T12:53:46;44.88;;;19.20;;
48751;SDS011;34544;48.836;9.174;2022-12-18T12:56:14;39.15;;;21.15;;
48751;SDS011;34544;48.836;9.174;2022-12-18T13:10:12;39.67;;;19.20;;
48751;SDS011;34544;48.836;9.174;2022-12-18T13:15:42;45.28;;;22.88;;
48751;SDS011;34544;48.836;9.174;2022-12-18T13:20:44;44.63;;;22.17;;
48751;SDS011;34544;48.836;9.174;2022-12-18T13:25:59;44.35;;;22.52;;
48751;SDS011;34544;48.836;9.174;2022-12-18T13:34:17;42.60;;;19.52;;
48751;SDS011;34544;48.836;9.174;2022-12-18T13:36:44;42.30;;;19.25;;
48751;SDS011;34544;48.836;9.174;2022-12-18T13:41:39;40.63;;;20.48;;
48751;SDS011;34544;48.836;9.174;2022-12-18T13:44:13;42.45;;;20.30;;
48751;SDS011;34544;48.836;9.174;2022-12-18T13:46:59;40.92;;;21.27;;
48751;SDS011;34544;48.836;9.174;2022-12-18T13:52:03;39.63;;;19.55;;
48751;SDS011;34544;48.836;9.174;2022-12-18T13:54:56;35.47;;;19.20;;
48751;SDS011;34544;48.836;9.174;2022-12-18T13:57:31;40.53;;;20.65;;
48751;SDS011;34544;48.836;9.174;2022-12-18T14:00:14;46.47;;;21.98;;
48751;SDS011;34544;48.836;9.174;2022-12-18T14:02:47;44.28;;;20.45;;
48751;SDS011;34544;48.836;9.174;2022-12-18T14:07:50;42.97;;;20.42;;
48751;SDS011;34544;48.836;9.174;2022-12-18T14:10:17;49.92;;;21.23;;
48751;SDS011;34544;48.836;9.174;2022-12-18T14:12:47;38.70;;;19.70;;
48751;SDS011;34544;48.836;9.174;2022-12-18T14:18:02;39.15;;;19.58;;
48751;SDS011;34544;48.836;9.174;2022-12-18T14:20:48;41.90;;;20.58;;
48751;SDS011;34544;48.836;9.174;2022-12-18T14:23:28;50.15;;;22.55;;
48751;SDS011;34544;48.836;9.174;2022-12-18T14:26:03;42.20;;;21.23;;
48751;SDS011;34544;48.836;9.174;2022-12-18T14:28:46;47.17;;;21.85;;
48751;SDS011;34544;48.836;9.174;2022-12-18T14:31:19;51.20;;;22.27;;
48751;SDS011;34544;48.836;9.174;2022-12-18T14:33:46;50.45;;;22.45;;
48751;SDS011;34544;48.836;9.174;2022-12-18T14:36:14;46.15;;;23.02;;
48751;SDS011;34544;48.836;9.174;2022-12-18T14:38:43;45.28;;;23.05;;
48751;SDS011;34544;48.836;9.174;2022-12-18T14:41:13;50.70;;;21.67;;
48751;SDS011;34544;48.836;9.174;2022-12-18T14:43:41;42.97;;;21.87;;
48751;SDS011;34544;48.836;9.174;2022-12-18T14:49:24;48.30;;;24.27;;
48751;SDS011;34544;48.836;9.174;2022-12-18T14:51:55;46.10;;;21.43;;
48751;SDS011;34544;48.836;9.174;2022-12-18T14:54:22;43.67;;;21.33;;
48751;SDS011;34544;48.836;9.174;2022-12-18T14:57:19;44.80;;;22.13;;
48751;SDS011;34544;48.836;9.174;2022-12-18T14:59:48;49.07;;;23.60;;
48751;SDS011;34544;48.836;9.174;2022-12-18T15:02:24;50.30;;;24.60;;
48751;SDS011;34544;48.836;9.174;2022-12-18T15:07:54;52.03;;;25.33;;
48751;SDS011;34544;48.836;9.174;2022-12-18T15:10:22;47.93;;;25.50;;
48751;SDS011;34544;48.836;9.174;2022-12-18T15:18:02;48.80;;;25.30;;
48751;SDS011;34544;48.836;9.174;2022-12-18T15:23:21;60.17;;;25.57;;
48751;SDS011;34544;48.836;9.174;2022-12-18T15:25:56;51.67;;;24.10;;
48751;SDS011;34544;48.836;9.174;2022-12-18T15:28:25;54.77;;;24.43;;
48751;SDS011;34544;48.836;9.174;2022-12-18T15:33:25;55.30;;;23.87;;
48751;SDS011;34544;48.836;9.174;2022-12-18T15:35:58;58.87;;;27.03;;
48751;SDS011;34544;48.836;9.174;2022-12-18T15:38:29;57.70;;;26.60;;
48751;SDS011;34544;48.836;9.174;2022-12-18T15:40:55;54.73;;;25.77;;
48751;SDS011;34544;48.836;9.174;2022-12-18T15:43:21;59.20;;;28.53;;
48751;SDS011;34544;48.836;9.174;2022-12-18T15:46:01;63.93;;;28.27;;
48751;SDS011;34544;48.836;9.174;2022-12-18T15:48:27;60.50;;;27.13;;
48751;SDS011;34544;48.836;9.174;2022-12-18T15:50:53;60.57;;;27.83;;
48751;SDS011;34544;48.836;9.174;2022-12-18T15:53:22;59.90;;;26.50;;
48751;SDS011;34544;48.836;9.174;2022-12-18T15:55:48;60.10;;;27.70;;
48751;SDS011;34544;48.836;9.174;2022-12-18T15:58:33;65.77;;;27.87;;
48751;SDS011;34544;48.836;9.174;2022-12-18T16:00:59;61.87;;;27.27;;
48751;SDS011;34544;48.836;9.174;2022-12-18T16:03:26;54.93;;;26.23;;
48751;SDS011;34544;48.836;9.174;2022-12-18T16:05:51;61.60;;;26.10;;
48751;SDS011;34544;48.836;9.174;2022-12-18T16:08:17;60.27;;;27.27;;
48751;SDS011;34544;48.836;9.174;2022-12-18T16:10:43;68.27;;;25.40;;
48751;SDS011;34544;48.836;9.174;2022-12-18T16:13:12;61.23;;;27.13;;
48751;SDS011;34544;48.836;9.174;2022-12-18T16:15:44;66.10;;;27.90;;
48751;SDS011;34544;48.836;9.174;2022-12-18T16:18:09;55.17;;;26.77;;
48751;SDS011;34544;48.836;9.174;2022-12-18T16:20:35;55.73;;;27.13;;
48751;SDS011;34544;48.836;9.174;2022-12-18T16:23:01;64.03;;;27.27;;
48751;SDS011;34544;48.836;9.174;2022-12-18T16:25:27;56.93;;;25.97;;
48751;SDS011;34544;48.836;9.174;2022-12-18T16:27:54;59.63;;;25.60;;
48751;SDS011;34544;48.836;9.174;2022-12-18T16:30:24;60.93;;;27.53;;
48751;SDS011;34544;48.836;9.174;2022-12-18T16:32:53;59.77;;;27.57;;
48751;SDS011;34544;48.836;9.174;2022-12-18T16:35:19;62.73;;;27.80;;
48751;SDS011;34544;48.836;9.174;2022-12-18T16:37:45;62.03;;;29.30;;
48751;SDS011;34544;48.836;9.174;2022-12-18T16:40:12;60.83;;;27.70;;
48751;SDS011;34544;48.836;9.174;2022-12-18T16:42:41;55.40;;;25.83;;
48751;SDS011;34544;48.836;9.174;2022-12-18T16:45:09;52.80;;;26.70;;
48751;SDS011;34544;48.836;9.174;2022-12-18T16:47:38;61.87;;;27.10;;
48751;SDS011;34544;48.836;9.174;2022-12-18T16:50:04;62.53;;;26.63;;
48751;SDS011;34544;48.836;9.174;2022-12-18T16:52:31;57.77;;;26.37;;
48751;SDS011;34544;48.836;9.174;2022-12-18T16:54:57;65.20;;;28.60;;
48751;SDS011;34544;48.836;9.174;2022-12-18T16:57:27;54.33;;;27.50;;